createdAt,value
2018-10-09T00:02:07.767Z,7.93
2018-10-09T00:04:36.161Z,7.87
2018-10-09T00:07:04.462Z,7.83
2018-10-09T00:09:32.754Z,7.83
2018-10-09T00:12:00.991Z,7.86
2018-10-09T00:14:29.265Z,7.83
2018-10-09T00:16:57.530Z,7.81
2018-10-09T00:19:25.863Z,7.81
2018-10-09T00:21:54.142Z,7.77
2018-10-09T00:24:22.445Z,7.78
2018-10-09T00:26:50.661Z,7.80
2018-10-09T00:29:18.911Z,7.77
2018-10-09T00:31:47.207Z,7.78
2018-10-09T00:34:15.474Z,7.84
2018-10-09T00:36:43.711Z,7.89
2018-10-09T00:39:12.116Z,7.89
2018-10-09T00:41:40.490Z,7.85
2018-10-09T00:44:08.966Z,7.82
2018-10-09T00:46:37.206Z,7.81
2018-10-09T00:49:05.688Z,7.85
2018-10-09T00:51:33.957Z,7.90
2018-10-09T00:54:02.231Z,7.92
2018-10-09T00:56:30.470Z,7.90
2018-10-09T00:58:58.919Z,7.83
2018-10-09T01:01:27.307Z,7.75
2018-10-09T01:03:55.586Z,7.72
2018-10-09T01:06:23.851Z,7.72
2018-10-09T01:08:52.157Z,7.73
2018-10-09T01:11:20.487Z,7.77
2018-10-09T01:13:48.767Z,7.78
2018-10-09T01:16:17.023Z,7.76
2018-10-09T01:18:45.254Z,7.75
2018-10-09T01:21:13.571Z,7.73
2018-10-09T01:23:41.825Z,7.73
2018-10-09T01:26:10.140Z,7.66
2018-10-09T01:28:38.601Z,7.63
2018-10-09T01:31:07.030Z,7.63
2018-10-09T01:33:35.243Z,7.63
2018-10-09T01:36:03.556Z,7.61
2018-10-09T01:38:31.825Z,7.58
2018-10-09T01:41:00.103Z,7.59
2018-10-09T01:43:28.318Z,7.57
2018-10-09T01:45:56.589Z,7.51
2018-10-09T01:48:24.841Z,7.51
2018-10-09T01:50:53.103Z,7.50
2018-10-09T01:53:21.336Z,7.50
2018-10-09T01:55:49.599Z,7.49
2018-10-09T01:58:17.861Z,7.50
2018-10-09T02:00:46.153Z,7.50
2018-10-09T02:03:14.408Z,7.48
2018-10-09T02:05:42.651Z,7.46
2018-10-09T02:08:10.899Z,7.43
2018-10-09T02:10:39.176Z,7.40
2018-10-09T02:13:07.506Z,7.37
2018-10-09T02:15:35.747Z,7.36
2018-10-09T02:18:03.990Z,7.36
2018-10-09T02:20:32.259Z,7.33
2018-10-09T02:23:00.501Z,7.32
2018-10-09T02:25:28.833Z,7.33
2018-10-09T02:27:57.092Z,7.31
2018-10-09T02:30:25.352Z,7.30
2018-10-09T02:32:53.623Z,7.31
2018-10-09T02:35:21.974Z,7.31
2018-10-09T02:37:50.224Z,7.33
2018-10-09T02:40:18.443Z,7.31
2018-10-09T02:42:46.754Z,7.27
2018-10-09T02:45:15.011Z,7.23
2018-10-09T02:47:43.357Z,7.23
2018-10-09T02:50:11.599Z,7.24
2018-10-09T02:52:39.820Z,7.26
2018-10-09T02:55:08.155Z,7.29
2018-10-09T02:57:36.422Z,7.29
2018-10-09T03:00:04.763Z,7.32
2018-10-09T03:02:33.003Z,7.34
2018-10-09T03:05:01.271Z,7.34
2018-10-09T03:07:29.561Z,7.38
2018-10-09T03:09:57.807Z,7.37
2018-10-09T03:12:26.027Z,7.32
2018-10-09T03:14:54.309Z,7.30
2018-10-09T03:17:22.571Z,7.29
2018-10-09T03:19:50.847Z,7.27
2018-10-09T03:22:19.099Z,7.23
2018-10-09T03:24:47.360Z,7.22
2018-10-09T03:27:15.621Z,7.19
2018-10-09T03:29:43.849Z,7.15
2018-10-09T03:32:12.093Z,7.09
2018-10-09T03:34:40.353Z,7.04
2018-10-09T03:37:08.612Z,7.04
2018-10-09T03:39:36.929Z,7.02
2018-10-09T03:42:05.196Z,7.03
2018-10-09T03:44:33.645Z,7.04
2018-10-09T03:47:01.929Z,7.04
2018-10-09T03:49:30.201Z,7.06
2018-10-09T03:51:58.471Z,7.08
2018-10-09T03:54:26.823Z,7.06
2018-10-09T03:56:55.065Z,7.05
2018-10-09T03:59:23.456Z,7.01
2018-10-09T04:01:51.742Z,6.99
2018-10-09T04:04:19.999Z,6.99
2018-10-09T04:06:48.233Z,6.99
2018-10-09T04:09:16.530Z,6.99
2018-10-09T04:11:44.765Z,6.99
2018-10-09T04:14:13.093Z,7.04
2018-10-09T04:16:41.385Z,7.08
2018-10-09T04:19:09.848Z,7.06
2018-10-09T04:21:38.110Z,7.01
2018-10-09T04:24:06.377Z,7.02
2018-10-09T04:26:34.861Z,7.04
2018-10-09T04:29:03.111Z,7.02
2018-10-09T04:31:31.369Z,6.98
2018-10-09T04:33:59.593Z,6.93
2018-10-09T04:36:27.887Z,6.89
2018-10-09T04:38:56.153Z,6.87
2018-10-09T04:41:24.369Z,6.84
2018-10-09T04:43:52.662Z,6.84
2018-10-09T04:46:20.870Z,6.83
2018-10-09T04:48:49.141Z,6.82
2018-10-09T04:51:17.952Z,6.84
2018-10-09T04:53:46.213Z,6.89
2018-10-09T04:56:14.490Z,6.89
2018-10-09T04:58:42.755Z,6.92
2018-10-09T05:01:10.999Z,6.95
2018-10-09T05:03:39.298Z,6.93
2018-10-09T05:06:07.789Z,6.93
2018-10-09T05:08:36.040Z,6.91
2018-10-09T05:11:04.397Z,6.90
2018-10-09T05:13:32.674Z,6.89
2018-10-09T05:16:00.966Z,6.87
2018-10-09T05:18:29.226Z,6.88
2018-10-09T05:20:57.530Z,6.88
2018-10-09T05:23:25.804Z,6.84
2018-10-09T05:25:54.106Z,6.80
2018-10-09T05:28:22.447Z,6.78
2018-10-09T05:30:50.663Z,6.78
2018-10-09T05:33:19.169Z,6.81
2018-10-09T05:35:47.426Z,6.83
2018-10-09T05:38:15.693Z,6.87
2018-10-09T05:40:43.975Z,6.89
2018-10-09T05:43:12.251Z,6.91
2018-10-09T05:45:41.195Z,6.88
2018-10-09T05:48:10.543Z,6.84
2018-10-09T05:50:38.868Z,6.81
2018-10-09T05:53:07.243Z,6.79
2018-10-09T05:55:36.284Z,6.77
2018-10-09T05:58:04.587Z,6.78
2018-10-09T06:00:32.830Z,6.81
2018-10-09T06:03:01.347Z,6.83
2018-10-09T06:05:30.147Z,6.85
2018-10-09T06:07:58.421Z,6.89
2018-10-09T06:10:26.665Z,6.92
2018-10-09T06:12:54.937Z,6.99
2018-10-09T06:15:23.215Z,7.05
2018-10-09T06:17:51.474Z,7.13
2018-10-09T06:20:19.778Z,7.19
2018-10-09T06:22:48.038Z,7.28
2018-10-09T06:25:16.465Z,7.38
2018-10-09T06:27:44.737Z,7.47
2018-10-09T06:30:13.009Z,7.52
2018-10-09T06:32:41.362Z,7.58
2018-10-09T06:35:09.625Z,7.66
2018-10-09T06:37:37.879Z,7.72
2018-10-09T06:40:06.461Z,7.76
2018-10-09T06:42:34.814Z,7.84
2018-10-09T06:45:03.050Z,7.92
2018-10-09T06:47:31.340Z,8.00
2018-10-09T06:49:59.583Z,8.06
2018-10-09T06:52:27.868Z,8.12
2018-10-09T06:54:56.168Z,8.18
2018-10-09T06:57:24.508Z,8.22
2018-10-09T06:59:52.836Z,8.23
2018-10-09T07:02:21.270Z,8.24
2018-10-09T07:04:49.548Z,8.28
2018-10-09T07:07:17.808Z,8.36
2018-10-09T07:09:46.103Z,8.44
2018-10-09T07:12:14.402Z,8.49
2018-10-09T07:14:42.766Z,8.57
2018-10-09T07:17:11.171Z,8.67
2018-10-09T07:19:39.375Z,8.72
2018-10-09T07:22:07.675Z,8.81
2018-10-09T07:24:36.184Z,8.89
2018-10-09T07:27:04.656Z,8.97
2018-10-09T07:29:32.972Z,9.02
2018-10-09T07:32:01.276Z,9.05
2018-10-09T07:34:29.607Z,9.09
2018-10-09T07:36:57.902Z,9.15
2018-10-09T07:39:26.207Z,9.21
2018-10-09T07:41:54.470Z,9.29
2018-10-09T07:44:22.772Z,9.36
2018-10-09T07:46:51.048Z,9.42
2018-10-09T07:49:19.309Z,9.49
2018-10-09T07:51:47.562Z,9.60
2018-10-09T07:54:15.835Z,9.74
2018-10-09T07:56:44.099Z,9.87
2018-10-09T07:59:12.352Z,9.98
2018-10-09T08:01:40.616Z,10.08
2018-10-09T08:04:08.886Z,10.18
2018-10-09T08:06:37.286Z,10.27
2018-10-09T08:09:08.496Z,10.33
2018-10-09T08:11:36.766Z,10.38
2018-10-09T08:14:05.031Z,10.48
2018-10-09T08:16:33.288Z,10.52
2018-10-09T08:19:01.724Z,10.56
2018-10-09T08:21:30.017Z,10.63
2018-10-09T08:23:58.291Z,10.72
2018-10-09T08:26:26.613Z,10.84
2018-10-09T08:28:54.917Z,10.97
2018-10-09T08:31:23.238Z,11.09
2018-10-09T08:33:51.506Z,11.25
2018-10-09T08:36:19.752Z,11.40
2018-10-09T08:38:48.278Z,11.55
2018-10-09T08:41:16.552Z,11.73
2018-10-09T08:43:44.873Z,11.85
2018-10-09T08:46:13.259Z,11.97
2018-10-09T08:48:42.072Z,12.07
2018-10-09T08:51:10.367Z,12.20
2018-10-09T08:53:38.631Z,12.34
2018-10-09T08:56:07.280Z,12.48
2018-10-09T08:58:35.585Z,12.60
2018-10-09T09:01:03.867Z,12.73
2018-10-09T09:03:32.235Z,12.85
2018-10-09T09:06:00.432Z,13.01
2018-10-09T09:08:28.914Z,13.16
2018-10-09T09:10:57.183Z,13.35
2018-10-09T09:13:25.451Z,13.53
2018-10-09T09:15:53.784Z,13.63
2018-10-09T09:18:22.016Z,13.73
2018-10-09T09:20:50.301Z,13.81
2018-10-09T09:23:18.585Z,13.86
2018-10-09T09:25:46.833Z,13.90
2018-10-09T09:28:15.179Z,13.87
2018-10-09T09:30:43.440Z,13.89
2018-10-09T09:33:11.794Z,13.90
2018-10-09T09:35:40.081Z,13.85
2018-10-09T09:38:08.377Z,13.81
2018-10-09T09:40:36.794Z,13.75
2018-10-09T09:43:05.050Z,13.68
2018-10-09T09:45:33.321Z,13.60
2018-10-09T09:48:01.663Z,13.55
2018-10-09T09:50:29.966Z,13.50
2018-10-09T09:52:58.273Z,13.48
2018-10-09T09:55:26.620Z,13.46
2018-10-09T09:57:54.993Z,13.49
2018-10-09T10:00:28.505Z,13.48
2018-10-09T10:02:56.827Z,13.52
2018-10-09T10:05:25.159Z,13.55
2018-10-09T10:07:53.411Z,13.60
2018-10-09T10:10:21.705Z,13.68
2018-10-09T10:12:50.006Z,13.80
2018-10-09T10:15:18.488Z,13.89
2018-10-09T10:17:46.751Z,14.03
2018-10-09T10:20:15.093Z,14.16
2018-10-09T10:22:43.390Z,14.30
2018-10-09T10:25:11.642Z,14.44
2018-10-09T10:27:39.908Z,14.52
2018-10-09T10:30:08.208Z,14.63
2018-10-09T10:32:36.525Z,14.73
2018-10-09T10:35:04.876Z,14.77
2018-10-09T10:37:33.169Z,14.81
2018-10-09T10:40:01.438Z,14.84
2018-10-09T10:42:29.715Z,14.91
2018-10-09T10:44:57.988Z,14.94
2018-10-09T10:47:26.279Z,14.94
2018-10-09T10:49:54.562Z,14.88
2018-10-09T10:52:22.825Z,14.93
2018-10-09T10:54:51.177Z,14.95
2018-10-09T10:57:19.417Z,14.96
2018-10-09T10:59:47.755Z,14.98
2018-10-09T11:02:16.034Z,14.94
2018-10-09T11:04:44.324Z,14.90
2018-10-09T11:07:12.602Z,14.91
2018-10-09T11:09:40.931Z,14.98
2018-10-09T11:12:09.205Z,15.11
2018-10-09T11:14:37.569Z,15.25
2018-10-09T11:17:05.787Z,15.37
2018-10-09T11:19:34.048Z,15.49
2018-10-09T11:22:02.355Z,15.62
2018-10-09T11:24:30.610Z,15.77
2018-10-09T11:26:58.913Z,15.91
2018-10-09T11:29:27.288Z,16.02
2018-10-09T11:31:55.531Z,16.14
2018-10-09T11:34:23.826Z,16.32
2018-10-09T11:36:52.060Z,16.44
2018-10-09T11:39:20.407Z,16.58
2018-10-09T11:41:48.670Z,16.70
2018-10-09T11:44:16.970Z,16.79
2018-10-09T11:46:45.236Z,16.91
2018-10-09T11:49:13.487Z,17.01
2018-10-09T11:51:41.995Z,17.11
2018-10-09T11:54:10.629Z,17.23
2018-10-09T11:56:39.124Z,17.30
2018-10-09T11:59:07.648Z,17.41
2018-10-09T12:01:36.999Z,17.50
2018-10-09T12:04:05.264Z,17.55
2018-10-09T12:06:33.531Z,17.58
2018-10-09T12:09:01.821Z,17.60
2018-10-09T12:11:30.088Z,17.62
2018-10-09T12:13:58.380Z,17.67
2018-10-09T12:16:26.718Z,17.70
2018-10-09T12:18:54.999Z,17.69
2018-10-09T12:21:23.299Z,17.74
2018-10-09T12:23:51.601Z,17.74
2018-10-09T12:26:19.874Z,17.74
2018-10-09T12:28:48.155Z,17.76
2018-10-09T12:31:16.548Z,17.81
2018-10-09T12:33:44.836Z,17.83
2018-10-09T12:36:13.130Z,17.86
2018-10-09T12:38:41.471Z,17.90
2018-10-09T12:41:09.814Z,17.94
2018-10-09T12:43:38.109Z,17.98
2018-10-09T12:46:06.382Z,18.05
2018-10-09T12:48:35.027Z,18.07
2018-10-09T12:51:03.330Z,18.08
2018-10-09T12:53:31.639Z,18.14
2018-10-09T12:56:00.381Z,18.24
2018-10-09T12:58:28.680Z,18.35
2018-10-09T13:00:56.949Z,18.44
2018-10-09T13:03:25.476Z,18.53
2018-10-09T13:05:53.723Z,18.54
2018-10-09T13:08:21.999Z,18.56
2018-10-09T13:10:50.312Z,18.56
2018-10-09T13:13:19.287Z,18.54
2018-10-09T13:15:47.594Z,18.57
2018-10-09T13:18:15.938Z,18.62
2018-10-09T13:20:44.649Z,18.63
2018-10-09T13:23:12.944Z,18.65
2018-10-09T13:25:41.253Z,18.65
2018-10-09T13:28:09.638Z,18.69
2018-10-09T13:30:37.902Z,18.75
2018-10-09T13:33:06.384Z,18.76
2018-10-09T13:35:35.456Z,18.76
2018-10-09T13:38:03.813Z,18.83
2018-10-09T13:40:32.058Z,18.76
2018-10-09T13:43:00.443Z,18.69
2018-10-09T13:45:28.676Z,18.69
2018-10-09T13:47:56.954Z,18.75
2018-10-09T13:50:25.281Z,18.78
2018-10-09T13:52:53.525Z,18.79
2018-10-09T13:55:21.880Z,18.76
2018-10-09T13:57:50.122Z,18.75
2018-10-09T14:00:18.454Z,18.75
2018-10-09T14:02:46.713Z,18.78
2018-10-09T14:05:14.968Z,18.80
2018-10-09T14:07:43.288Z,18.85
2018-10-09T14:10:11.581Z,18.82
2018-10-09T14:12:39.872Z,18.79
2018-10-09T14:15:08.284Z,18.74
2018-10-09T14:17:36.461Z,18.71
2018-10-09T14:20:04.763Z,18.74
2018-10-09T14:22:33.172Z,18.76
2018-10-09T14:25:01.394Z,18.74
2018-10-09T14:27:29.664Z,18.78
2018-10-09T14:29:57.953Z,18.72
2018-10-09T14:32:26.497Z,18.70
2018-10-09T14:34:54.859Z,18.71
2018-10-09T14:37:23.235Z,18.63
2018-10-09T14:39:51.520Z,18.58
2018-10-09T14:42:20.264Z,18.56
2018-10-09T14:44:48.616Z,18.53
2018-10-09T14:47:17.655Z,18.51
2018-10-09T14:49:45.965Z,18.45
2018-10-09T14:52:14.480Z,18.41
2018-10-09T14:54:42.790Z,18.38
2018-10-09T14:57:11.063Z,18.35
2018-10-09T14:59:39.350Z,18.31
2018-10-09T15:02:08.156Z,18.26
2018-10-09T15:04:36.444Z,18.19
2018-10-09T15:07:04.703Z,18.18
2018-10-09T15:09:33.035Z,18.13
2018-10-09T15:12:01.283Z,18.08
2018-10-09T15:14:29.606Z,18.04
2018-10-09T15:16:57.901Z,17.97
2018-10-09T15:19:26.144Z,17.89
2018-10-09T15:21:54.416Z,17.84
2018-10-09T15:24:22.679Z,17.81
2018-10-09T15:26:50.984Z,17.82
2018-10-09T15:29:19.264Z,17.84
2018-10-09T15:31:47.767Z,17.81
2018-10-09T15:34:16.077Z,17.75
2018-10-09T15:36:44.839Z,17.71
2018-10-09T15:39:13.659Z,17.65
2018-10-09T15:41:42.574Z,17.59
2018-10-09T15:44:10.837Z,17.54
2018-10-09T15:46:39.351Z,17.51
2018-10-09T15:49:07.916Z,17.47
2018-10-09T15:51:36.180Z,17.39
2018-10-09T15:54:04.459Z,17.37
2018-10-09T15:56:32.865Z,17.29
2018-10-09T15:59:01.538Z,17.20
2018-10-09T16:01:29.772Z,17.15
2018-10-09T16:03:58.061Z,17.09
2018-10-09T16:06:26.301Z,17.00
2018-10-09T16:08:54.548Z,16.90
2018-10-09T16:11:22.842Z,16.79
2018-10-09T16:13:51.126Z,16.69
2018-10-09T16:16:19.412Z,16.59
2018-10-09T16:18:47.679Z,16.45
2018-10-09T16:21:15.950Z,16.33
2018-10-09T16:23:44.256Z,16.22
2018-10-09T16:26:12.536Z,16.15
2018-10-09T16:28:40.775Z,16.08
2018-10-09T16:31:09.395Z,16.04
2018-10-09T16:33:37.698Z,15.99
2018-10-09T16:36:05.996Z,15.94
2018-10-09T16:38:34.268Z,15.86
2018-10-09T16:41:02.536Z,15.81
2018-10-09T16:43:30.833Z,15.75
2018-10-09T16:45:59.187Z,15.69
2018-10-09T16:48:27.458Z,15.61
2018-10-09T16:50:55.725Z,15.55
2018-10-09T16:53:23.984Z,15.48
2018-10-09T16:55:52.252Z,15.42
2018-10-09T16:58:20.542Z,15.34
2018-10-09T17:00:48.807Z,15.27
2018-10-09T17:03:37.954Z,15.17
2018-10-09T17:06:07.056Z,15.02
2018-10-09T17:08:35.656Z,14.91
2018-10-09T17:11:03.951Z,14.84
2018-10-09T17:13:32.224Z,14.78
2018-10-09T17:16:00.509Z,14.68
2018-10-09T17:18:28.783Z,14.59
2018-10-09T17:20:56.995Z,14.50
2018-10-09T17:23:25.305Z,14.41
2018-10-09T17:25:53.589Z,14.36
2018-10-09T17:28:21.896Z,14.32
2018-10-09T17:30:50.124Z,14.28
2018-10-09T17:33:18.553Z,14.21
2018-10-09T17:35:46.741Z,14.13
2018-10-09T17:38:15.019Z,14.09
2018-10-09T17:40:43.292Z,14.06
2018-10-09T17:43:11.566Z,14.07
2018-10-09T17:45:39.834Z,14.06
2018-10-09T17:48:08.112Z,14.04
2018-10-09T17:50:36.456Z,14.00
2018-10-09T17:53:04.719Z,13.96
2018-10-09T17:55:32.983Z,13.89
2018-10-09T17:58:01.327Z,13.82
2018-10-09T18:00:29.590Z,13.77
2018-10-09T18:02:57.909Z,13.69
2018-10-09T18:05:26.172Z,13.60
2018-10-09T18:07:54.451Z,13.51
2018-10-09T18:10:22.724Z,13.43
2018-10-09T18:12:50.966Z,13.37
2018-10-09T18:15:19.707Z,13.34
2018-10-09T18:17:48.288Z,13.34
2018-10-09T18:20:16.590Z,13.35
2018-10-09T18:22:44.831Z,13.31
2018-10-09T18:25:13.166Z,13.23
2018-10-09T18:27:41.476Z,13.14
2018-10-09T18:30:10.269Z,13.09
2018-10-09T18:32:38.662Z,13.05
2018-10-09T18:35:06.956Z,13.04
2018-10-09T18:37:35.204Z,13.05
2018-10-09T18:40:03.512Z,13.01
2018-10-09T18:42:31.885Z,12.95
2018-10-09T18:45:00.101Z,12.88
2018-10-09T18:47:33.742Z,12.83
2018-10-09T18:50:02.012Z,12.78
2018-10-09T18:52:30.269Z,12.73
2018-10-09T18:54:58.851Z,12.71
2018-10-09T18:57:27.196Z,12.66
2018-10-09T18:59:55.512Z,12.60
2018-10-09T19:02:23.803Z,12.56
2018-10-09T19:04:52.195Z,12.50
2018-10-09T19:07:20.499Z,12.46
2018-10-09T19:09:49.097Z,12.41
2018-10-09T19:12:17.820Z,12.38
2018-10-09T19:14:46.548Z,12.34
2018-10-09T19:17:14.918Z,12.29
2018-10-09T19:19:43.529Z,12.26
2018-10-09T19:22:11.842Z,12.25
2018-10-09T19:24:40.143Z,12.24
2018-10-09T19:27:08.431Z,12.21
2018-10-09T19:29:36.697Z,12.18
2018-10-09T19:32:04.951Z,12.13
2018-10-09T19:34:33.260Z,12.09
2018-10-09T19:37:01.540Z,12.05
2018-10-09T19:39:29.905Z,12.05
2018-10-09T19:41:58.100Z,12.02
2018-10-09T19:44:26.379Z,11.98
2018-10-09T19:46:54.653Z,11.99
2018-10-09T19:49:22.908Z,11.99
2018-10-09T19:51:51.181Z,11.97
2018-10-09T19:54:19.426Z,11.93
2018-10-09T19:56:47.676Z,11.95
2018-10-09T19:59:15.997Z,11.98
2018-10-09T20:01:44.253Z,12.04
2018-10-09T20:04:12.550Z,12.02
2018-10-09T20:06:40.839Z,12.00
2018-10-09T20:09:10.938Z,11.93
2018-10-09T20:11:39.325Z,11.86
2018-10-09T20:14:08.581Z,11.80
2018-10-09T20:16:36.895Z,11.75
2018-10-09T20:19:05.207Z,11.72
2018-10-09T20:21:33.804Z,11.74
2018-10-09T20:24:02.096Z,11.76
2018-10-09T20:26:30.356Z,11.76
2018-10-09T20:28:58.619Z,11.71
2018-10-09T20:31:26.924Z,11.67
2018-10-09T20:33:55.221Z,11.66
2018-10-09T20:36:23.736Z,11.68
2018-10-09T20:38:52.019Z,11.67
2018-10-09T20:41:20.336Z,11.63
2018-10-09T20:43:48.708Z,11.60
2018-10-09T20:46:17.114Z,11.58
2018-10-09T20:48:45.600Z,11.58
2018-10-09T20:51:14.053Z,11.58
2018-10-09T20:53:42.340Z,11.51
2018-10-09T20:56:10.624Z,11.47
2018-10-09T20:58:39.194Z,11.44
2018-10-09T21:01:07.608Z,11.42
2018-10-09T21:03:35.934Z,11.36
2018-10-09T21:06:04.258Z,11.30
2018-10-09T21:08:32.506Z,11.27
2018-10-09T21:11:00.810Z,11.23
2018-10-09T21:13:29.078Z,11.18
2018-10-09T21:15:57.374Z,11.16
2018-10-09T21:18:25.869Z,11.16
2018-10-09T21:20:54.138Z,11.17
2018-10-09T21:23:22.407Z,11.14
2018-10-09T21:25:50.682Z,11.10
2018-10-09T21:28:18.974Z,11.05
2018-10-09T21:30:47.239Z,11.02
2018-10-09T21:33:15.520Z,11.04
2018-10-09T21:35:43.814Z,11.08
2018-10-09T21:38:12.106Z,11.08
2018-10-09T21:40:40.394Z,11.05
2018-10-09T21:43:08.694Z,11.02
2018-10-09T21:45:36.971Z,10.98
2018-10-09T21:48:05.630Z,10.96
2018-10-09T21:50:33.929Z,10.97
2018-10-09T21:53:02.232Z,10.97
2018-10-09T21:55:30.622Z,11.01
2018-10-09T21:57:59.135Z,11.05
2018-10-09T22:00:27.622Z,11.06
2018-10-09T22:02:56.307Z,11.00
2018-10-09T22:05:24.622Z,10.93
2018-10-09T22:07:53.354Z,10.87
2018-10-09T22:10:21.704Z,10.83
2018-10-09T22:12:49.982Z,10.81
2018-10-09T22:15:18.243Z,10.82
2018-10-09T22:17:46.519Z,10.81
2018-10-09T22:20:14.780Z,10.77
2018-10-09T22:22:43.056Z,10.72
2018-10-09T22:25:11.322Z,10.69
2018-10-09T22:27:39.640Z,10.68
2018-10-09T22:30:07.911Z,10.66
2018-10-09T22:32:36.216Z,10.63
2018-10-09T22:35:04.522Z,10.56
2018-10-09T22:37:32.782Z,10.53
2018-10-09T22:40:01.100Z,10.53
2018-10-09T22:42:29.375Z,10.51
2018-10-09T22:44:57.634Z,10.51
2018-10-09T22:47:25.915Z,10.53
2018-10-09T22:49:54.221Z,10.54
2018-10-09T22:52:22.570Z,10.51
2018-10-09T22:54:50.922Z,10.46
2018-10-09T22:57:19.235Z,10.48
2018-10-09T22:59:47.526Z,10.46
2018-10-09T23:02:15.835Z,10.37
2018-10-09T23:04:44.122Z,10.30
2018-10-09T23:07:12.463Z,10.28
2018-10-09T23:09:41.147Z,10.31
2018-10-09T23:12:09.406Z,10.37
2018-10-09T23:14:37.678Z,10.42
2018-10-09T23:17:05.963Z,10.41
2018-10-09T23:19:34.215Z,10.37
2018-10-09T23:22:02.548Z,10.33
2018-10-09T23:24:30.775Z,10.28
2018-10-09T23:26:59.040Z,10.26
2018-10-09T23:29:27.363Z,10.25
2018-10-09T23:31:55.645Z,10.25
2018-10-09T23:34:23.941Z,10.25
2018-10-09T23:36:52.277Z,10.22
2018-10-09T23:39:20.535Z,10.18
2018-10-09T23:41:48.846Z,10.15
2018-10-09T23:44:17.115Z,10.11
2018-10-09T23:46:45.450Z,10.08
2018-10-09T23:49:13.749Z,10.07
2018-10-09T23:51:42.050Z,10.09
2018-10-09T23:54:10.334Z,10.09
2018-10-09T23:56:38.651Z,10.08
2018-10-09T23:59:07.519Z,10.07
